Royal Lake, Illinois
Current Conditions -  °F | °C
As of 4:35 PM on Tuesday 21 Oct 2014 (Local Time) from KENL Reporting Station
Clear Clear  
Wind Chill: 64°   Ceiling: Unl
Heat Index: 64°   Visibility: 10mi
Dew Point: 41°   Wind: 8mph
Humidity: 43%   Direction: 30°NNE
Pressure: 30.11"   Gusts: NA
Location:  38.5905°N, 89.3709°W
Report Text: KENL 212135Z AUTO 03007KT 10SM CLR 18/05 A3011 RMK AO2 T01760048
Loading
Personal Weather Stations






























Interactive Weather Map
Tropical Storm Tracking
New forecast layout! Learn more

10-Day Weather Forecast

Advertisements
Track Severe Weather on mobile